createdAt,value
2018-05-23T00:01:22.517Z,9.60
2018-05-23T00:03:50.729Z,9.20
2018-05-23T00:06:18.957Z,8.93
2018-05-23T00:08:47.231Z,10.33
2018-05-23T00:11:15.460Z,10.17
2018-05-23T00:13:43.686Z,9.90
2018-05-23T00:16:11.911Z,10.03
2018-05-23T00:18:40.132Z,10.00
2018-05-23T00:21:08.375Z,13.30
2018-05-23T00:23:36.584Z,12.03
2018-05-23T00:26:04.811Z,9.63
2018-05-23T00:28:33.036Z,9.03
2018-05-23T00:31:01.260Z,10.40
2018-05-23T00:33:29.568Z,9.23
2018-05-23T00:35:57.785Z,10.90
2018-05-23T00:38:26.120Z,9.70
2018-05-23T00:40:54.349Z,10.07
2018-05-23T00:43:23.164Z,8.40
2018-05-23T00:45:51.445Z,10.20
2018-05-23T00:48:20.432Z,9.40
2018-05-23T00:50:49.512Z,9.20
2018-05-23T00:53:17.653Z,9.53
2018-05-23T00:55:45.879Z,10.37
2018-05-23T00:58:14.876Z,10.90
2018-05-23T01:00:43.844Z,10.53
2018-05-23T01:03:12.323Z,10.43
2018-05-23T01:05:40.618Z,9.73
2018-05-23T01:08:08.840Z,9.97
2018-05-23T01:10:37.050Z,11.10
2018-05-23T01:13:05.320Z,10.83
2018-05-23T01:15:33.562Z,9.50
2018-05-23T01:18:01.790Z,10.57
2018-05-23T01:20:30.816Z,9.80
2018-05-23T01:23:00.223Z,8.83
2018-05-23T01:25:28.432Z,8.80
2018-05-23T01:27:56.771Z,9.43
2018-05-23T01:30:25.048Z,10.00
2018-05-23T01:32:53.287Z,10.63
2018-05-23T01:35:22.269Z,11.07
2018-05-23T01:37:50.512Z,11.23
2018-05-23T01:40:18.729Z,11.23
2018-05-23T01:42:47.038Z,9.93
2018-05-23T01:45:15.273Z,9.93
2018-05-23T01:47:43.519Z,9.07
2018-05-23T01:50:11.915Z,9.47
2018-05-23T01:52:40.140Z,10.20
2018-05-23T01:55:08.368Z,9.83
2018-05-23T01:57:36.590Z,9.73
2018-05-23T02:00:05.221Z,9.43
2018-05-23T02:02:33.456Z,9.77
2018-05-23T02:05:01.694Z,10.13
2018-05-23T02:07:30.715Z,10.70
2018-05-23T02:09:58.944Z,9.70
2018-05-23T02:12:27.162Z,9.17
2018-05-23T02:14:55.385Z,9.53
2018-05-23T02:17:23.598Z,9.37
2018-05-23T02:19:52.605Z,9.70
2018-05-23T02:22:20.812Z,9.07
2018-05-23T02:24:49.042Z,9.70
2018-05-23T02:27:18.026Z,8.30
2018-05-23T02:29:46.244Z,9.23
2018-05-23T02:32:14.459Z,8.93
2018-05-23T02:34:42.769Z,8.73
2018-05-23T02:37:11.037Z,8.73
2018-05-23T02:39:39.277Z,9.07
2018-05-23T02:42:07.488Z,9.00
2018-05-23T02:44:35.708Z,8.93
2018-05-23T02:47:03.970Z,9.17
2018-05-23T02:49:32.152Z,8.57
2018-05-23T02:52:00.384Z,9.63
2018-05-23T02:54:28.617Z,9.40
2018-05-23T02:56:56.829Z,9.27
2018-05-23T02:59:25.829Z,9.60
2018-05-23T03:01:54.048Z,9.33
2018-05-23T03:04:22.373Z,9.50
2018-05-23T03:06:50.665Z,9.57
2018-05-23T03:09:18.888Z,9.53
2018-05-23T03:11:47.151Z,11.00
2018-05-23T03:14:15.352Z,11.03
2018-05-23T03:16:44.346Z,10.93
2018-05-23T03:19:12.653Z,10.97
2018-05-23T03:21:40.869Z,10.20
2018-05-23T03:24:09.196Z,9.07
2018-05-23T03:26:37.416Z,10.93
2018-05-23T03:29:05.759Z,10.63
2018-05-23T03:31:33.981Z,10.70
2018-05-23T03:34:02.311Z,10.80
2018-05-23T03:36:30.605Z,10.60
2018-05-23T03:38:58.832Z,10.03
2018-05-23T03:41:27.836Z,11.07
2018-05-23T03:43:56.055Z,10.83
2018-05-23T03:46:24.324Z,11.37
2018-05-23T03:48:52.545Z,11.47
2018-05-23T03:51:20.770Z,11.50
2018-05-23T03:53:49.001Z,12.63
2018-05-23T03:56:17.976Z,11.80
2018-05-23T03:58:46.293Z,13.10
2018-05-23T04:01:26.576Z,12.37
2018-05-23T04:04:06.803Z,13.10
2018-05-23T04:06:46.877Z,12.63
2018-05-23T04:09:15.108Z,11.47
2018-05-23T04:11:44.131Z,12.37
2018-05-23T04:14:12.413Z,11.97
2018-05-23T04:16:40.676Z,13.33
2018-05-23T04:19:08.912Z,13.97
2018-05-23T04:21:37.234Z,13.50
2018-05-23T04:24:05.601Z,14.80
2018-05-23T04:26:33.753Z,17.10
2018-05-23T04:29:01.980Z,18.67
2018-05-23T04:31:30.196Z,20.37
2018-05-23T04:33:58.526Z,20.80
2018-05-23T04:36:26.788Z,20.40
2018-05-23T04:38:55.166Z,19.70
2018-05-23T04:41:23.392Z,20.40
2018-05-23T04:43:51.617Z,20.83
2018-05-23T04:46:19.897Z,22.77
2018-05-23T04:48:48.223Z,22.13
2018-05-23T04:51:16.389Z,22.53
2018-05-23T04:53:44.622Z,21.20
2018-05-23T04:56:12.840Z,19.47
2018-05-23T04:58:41.165Z,19.10
2018-05-23T05:01:09.446Z,18.90
2018-05-23T05:03:38.434Z,20.60
2018-05-23T05:06:06.685Z,18.57
2018-05-23T05:08:35.725Z,20.23
2018-05-23T05:11:03.960Z,20.70
2018-05-23T05:13:32.969Z,19.47
2018-05-23T05:16:01.223Z,18.83
2018-05-23T05:18:30.237Z,20.17
2018-05-23T05:20:58.476Z,19.37
2018-05-23T05:23:26.700Z,18.83
2018-05-23T05:25:55.372Z,18.67
2018-05-23T05:28:24.513Z,18.40
2018-05-23T05:30:52.868Z,18.93
2018-05-23T05:33:21.079Z,19.33
2018-05-23T05:35:49.403Z,18.70
2018-05-23T05:38:17.627Z,19.20
2018-05-23T05:40:45.947Z,19.47
2018-05-23T05:43:14.472Z,19.30
2018-05-23T05:45:42.812Z,20.30
2018-05-23T05:48:11.019Z,20.73
2018-05-23T05:50:39.259Z,19.77
2018-05-23T05:53:07.472Z,20.60
2018-05-23T05:55:35.702Z,18.57
2018-05-23T05:58:03.920Z,18.43
2018-05-23T06:00:32.155Z,17.80
2018-05-23T06:03:00.441Z,17.33
2018-05-23T06:05:28.723Z,16.93
2018-05-23T06:07:56.941Z,17.13
2018-05-23T06:10:25.191Z,16.43
2018-05-23T06:12:53.401Z,15.40
2018-05-23T06:15:21.621Z,15.33
2018-05-23T06:17:49.856Z,14.93
2018-05-23T06:20:18.844Z,14.67
2018-05-23T06:22:47.852Z,13.03
2018-05-23T06:25:16.836Z,13.33
2018-05-23T06:27:45.830Z,12.60
2018-05-23T06:30:14.909Z,13.90
2018-05-23T06:32:43.217Z,13.67
2018-05-23T06:35:11.519Z,12.97
2018-05-23T06:37:39.752Z,12.37
2018-05-23T06:40:09.026Z,12.47
2018-05-23T06:42:38.046Z,10.97
2018-05-23T06:45:07.057Z,11.03
2018-05-23T06:47:35.295Z,10.93
2018-05-23T06:50:04.107Z,11.50
2018-05-23T06:52:32.368Z,11.73
2018-05-23T06:55:00.587Z,11.40
2018-05-23T06:57:28.854Z,12.13
2018-05-23T06:59:57.073Z,11.43
2018-05-23T07:02:25.306Z,11.40
2018-05-23T07:04:53.525Z,12.33
2018-05-23T07:07:21.764Z,11.53
2018-05-23T07:09:49.988Z,11.50
2018-05-23T07:12:18.225Z,12.63
2018-05-23T07:14:46.461Z,11.67
2018-05-23T07:17:14.716Z,12.47
2018-05-23T07:19:43.018Z,13.40
2018-05-23T07:22:11.301Z,12.67
2018-05-23T07:24:39.524Z,12.30
2018-05-23T07:27:07.845Z,12.47
2018-05-23T07:29:36.060Z,14.53
2018-05-23T07:32:04.303Z,16.67
2018-05-23T07:34:32.546Z,14.50
2018-05-23T07:37:00.848Z,14.17
2018-05-23T07:39:29.075Z,14.13
2018-05-23T07:41:57.397Z,15.00
2018-05-23T07:44:25.639Z,14.00
2018-05-23T07:46:53.832Z,13.27
2018-05-23T07:49:22.813Z,12.40
2018-05-23T07:51:51.228Z,13.13
2018-05-23T07:54:19.446Z,13.07
2018-05-23T07:56:47.660Z,14.17
2018-05-23T07:59:16.660Z,14.90
2018-05-23T08:01:44.890Z,14.50
2018-05-23T08:04:13.112Z,14.23
2018-05-23T08:06:41.387Z,14.47
2018-05-23T08:09:09.688Z,14.40
2018-05-23T08:11:37.916Z,14.40
2018-05-23T08:14:06.925Z,14.77
2018-05-23T08:16:35.931Z,14.97
2018-05-23T08:19:04.744Z,14.70
2018-05-23T08:21:32.996Z,12.40
2018-05-23T08:24:01.291Z,12.60
2018-05-23T08:26:30.233Z,12.03
2018-05-23T08:28:59.240Z,11.77
2018-05-23T08:31:27.525Z,14.07
2018-05-23T08:33:56.110Z,14.93
2018-05-23T08:36:24.337Z,16.53
2018-05-23T08:38:52.645Z,13.60
2018-05-23T08:41:21.714Z,15.27
2018-05-23T08:43:49.921Z,13.70
2018-05-23T08:46:18.132Z,18.60
2018-05-23T08:48:46.368Z,12.53
2018-05-23T08:51:15.366Z,9.73
2018-05-23T08:53:44.583Z,9.93
2018-05-23T08:56:12.841Z,9.70
2018-05-23T08:58:41.066Z,9.43
2018-05-23T09:01:09.316Z,10.93
2018-05-23T09:03:37.558Z,9.97
2018-05-23T09:06:06.644Z,10.90
2018-05-23T09:08:35.637Z,10.67
2018-05-23T09:11:04.623Z,11.83
2018-05-23T09:13:33.645Z,11.63
2018-05-23T09:16:01.883Z,10.57
2018-05-23T09:18:30.108Z,10.63
2018-05-23T09:20:58.480Z,10.90
2018-05-23T09:23:26.753Z,11.73
2018-05-23T09:25:54.974Z,9.80
2018-05-23T09:28:23.205Z,9.07
2018-05-23T09:30:51.476Z,10.17
2018-05-23T09:33:19.711Z,8.97
2018-05-23T09:35:47.930Z,9.77
2018-05-23T09:38:16.194Z,10.50
2018-05-23T09:40:44.476Z,10.00
2018-05-23T09:43:12.941Z,9.43
2018-05-23T09:45:41.947Z,9.57
2018-05-23T09:48:10.239Z,9.77
2018-05-23T09:50:39.157Z,9.80
2018-05-23T09:53:07.377Z,10.23
2018-05-23T09:55:36.373Z,10.33
2018-05-23T09:58:04.597Z,10.13
2018-05-23T10:00:32.842Z,10.30
2018-05-23T10:03:01.057Z,10.80
2018-05-23T10:05:29.317Z,12.40
2018-05-23T10:07:57.658Z,12.80
2018-05-23T10:10:25.888Z,11.30
2018-05-23T10:12:54.105Z,12.23
2018-05-23T10:15:22.348Z,12.23
2018-05-23T10:17:50.653Z,11.50
2018-05-23T10:20:18.892Z,11.00
2018-05-23T10:22:47.213Z,11.20
2018-05-23T10:25:15.456Z,11.23
2018-05-23T10:27:44.479Z,11.60
2018-05-23T10:30:13.126Z,11.20
2018-05-23T10:32:42.135Z,11.10
2018-05-23T10:35:11.141Z,10.03
2018-05-23T10:37:40.150Z,10.23
2018-05-23T10:40:08.389Z,10.63
2018-05-23T10:42:37.405Z,9.77
2018-05-23T10:45:05.646Z,9.13
2018-05-23T10:47:33.868Z,9.63
2018-05-23T10:50:02.118Z,9.70
2018-05-23T10:52:30.417Z,9.80
2018-05-23T10:54:58.648Z,10.27
2018-05-23T10:57:26.969Z,10.07
2018-05-23T10:59:55.200Z,10.27
2018-05-23T11:02:23.421Z,9.80
2018-05-23T11:04:51.657Z,9.70
2018-05-23T11:07:19.897Z,9.90
2018-05-23T11:09:48.109Z,9.00
2018-05-23T11:12:16.526Z,9.37
2018-05-23T11:14:44.757Z,9.67
2018-05-23T11:17:12.965Z,9.57
2018-05-23T11:19:41.210Z,9.57
2018-05-23T11:22:09.423Z,9.47
2018-05-23T11:24:38.372Z,9.83
2018-05-23T11:27:06.586Z,8.83
2018-05-23T11:29:34.813Z,8.60
2018-05-23T11:32:03.029Z,9.47
2018-05-23T11:34:31.270Z,8.47
2018-05-23T11:36:59.481Z,7.80
2018-05-23T11:39:27.711Z,7.67
2018-05-23T11:41:55.930Z,7.63
2018-05-23T11:44:34.986Z,7.70
2018-05-23T11:47:03.233Z,8.17
2018-05-23T11:49:31.457Z,8.17
2018-05-23T11:51:59.676Z,8.70
2018-05-23T11:54:27.905Z,8.83
2018-05-23T11:56:56.119Z,8.47
2018-05-23T11:59:26.016Z,8.40
2018-05-23T12:01:54.276Z,10.07
2018-05-23T12:04:22.496Z,41.93
2018-05-23T12:06:51.103Z,47.90
2018-05-23T12:09:19.310Z,38.70
2018-05-23T12:11:48.363Z,18.67
2018-05-23T12:14:16.580Z,18.20
2018-05-23T12:16:44.821Z,14.73
2018-05-23T12:19:13.125Z,12.13
2018-05-23T12:21:41.466Z,112.20
2018-05-23T12:24:09.692Z,49.77
2018-05-23T12:26:37.964Z,15.77
2018-05-23T12:29:06.182Z,44.80
2018-05-23T12:31:34.457Z,48.47
2018-05-23T12:34:02.670Z,20.33
2018-05-23T12:36:30.913Z,24.83
2018-05-23T12:38:59.141Z,20.00
2018-05-23T12:41:27.377Z,21.40
2018-05-23T12:43:55.594Z,12.97
2018-05-23T12:46:24.612Z,13.17
2018-05-23T12:48:52.839Z,10.40
2018-05-23T12:51:21.056Z,11.63
2018-05-23T12:53:49.331Z,11.17
2018-05-23T12:56:17.505Z,10.47
2018-05-23T12:58:45.722Z,11.47
2018-05-23T13:01:13.966Z,13.83
2018-05-23T13:03:42.182Z,11.70
2018-05-23T13:06:10.421Z,12.33
2018-05-23T13:08:38.676Z,12.70
2018-05-23T13:11:06.922Z,12.37
2018-05-23T13:13:35.141Z,11.83
2018-05-23T13:16:03.368Z,11.70
2018-05-23T13:18:31.595Z,12.73
2018-05-23T13:20:59.824Z,12.20
2018-05-23T13:23:28.052Z,13.17
2018-05-23T13:25:56.373Z,13.43
2018-05-23T13:28:25.318Z,12.60
2018-05-23T13:30:53.543Z,14.00
2018-05-23T13:33:21.767Z,14.90
2018-05-23T13:35:50.000Z,15.50
2018-05-23T13:38:19.074Z,15.10
2018-05-23T13:40:47.296Z,14.60
2018-05-23T13:43:15.524Z,13.80
2018-05-23T13:45:44.158Z,15.63
2018-05-23T13:48:12.561Z,13.57
2018-05-23T13:50:42.681Z,14.53
2018-05-23T13:53:10.828Z,15.17
2018-05-23T13:55:39.378Z,14.40
2018-05-23T13:58:09.414Z,14.03
2018-05-23T14:00:37.928Z,15.47
2018-05-23T14:03:07.900Z,14.43
2018-05-23T14:05:36.994Z,13.10
2018-05-23T14:08:05.444Z,13.03
2018-05-23T14:10:33.744Z,12.83
2018-05-23T14:13:02.667Z,11.03
2018-05-23T14:15:32.070Z,11.80
2018-05-23T14:18:00.292Z,11.60
2018-05-23T14:20:28.577Z,11.77
2018-05-23T14:22:56.792Z,10.43
2018-05-23T14:25:25.021Z,11.80
2018-05-23T14:27:53.252Z,10.60
2018-05-23T14:30:21.518Z,10.60
2018-05-23T14:32:49.761Z,11.47
2018-05-23T14:35:18.886Z,11.77
2018-05-23T14:37:47.120Z,13.27
2018-05-23T14:40:15.396Z,10.67
2018-05-23T14:42:43.639Z,10.57
2018-05-23T14:45:11.880Z,11.03
2018-05-23T14:47:40.135Z,11.37
2018-05-23T14:50:08.605Z,10.93
2018-05-23T14:52:37.636Z,11.20
2018-05-23T14:55:05.854Z,9.20
2018-05-23T14:57:34.189Z,12.03
2018-05-23T15:00:02.721Z,12.17
2018-05-23T15:02:30.974Z,9.10
2018-05-23T15:04:59.178Z,17.47
2018-05-23T15:07:27.507Z,22.67
2018-05-23T15:09:55.722Z,20.87
2018-05-23T15:12:23.960Z,18.30
2018-05-23T15:14:52.180Z,28.80
2018-05-23T15:17:20.408Z,43.97
2018-05-23T15:19:48.717Z,33.27
2018-05-23T15:22:17.711Z,26.07
2018-05-23T15:24:45.994Z,46.35
2018-05-23T15:27:14.298Z,71.65
2018-05-23T15:29:42.463Z,42.33
2018-05-23T15:32:11.465Z,32.47
2018-05-23T15:34:39.688Z,25.17
2018-05-23T15:37:07.950Z,29.90
2018-05-23T15:39:36.197Z,53.00
2018-05-23T15:42:04.476Z,23.27
2018-05-23T15:44:32.658Z,26.70
2018-05-23T15:47:00.870Z,16.33
2018-05-23T15:49:29.110Z,26.07
2018-05-23T15:51:57.370Z,12.67
2018-05-23T15:54:25.610Z,20.00
2018-05-23T15:56:53.936Z,28.87
2018-05-23T15:59:22.172Z,15.80
2018-05-23T16:01:50.404Z,9.23
2018-05-23T16:04:18.820Z,10.60
2018-05-23T16:06:47.140Z,13.10
2018-05-23T16:09:15.457Z,15.47
2018-05-23T16:11:43.762Z,4.33
2018-05-23T16:14:12.118Z,7.10
2018-05-23T16:16:40.346Z,9.70
2018-05-23T16:19:08.670Z,7.17
2018-05-23T16:21:36.896Z,6.40
2018-05-23T16:24:05.210Z,4.90
2018-05-23T16:26:33.536Z,6.77
2018-05-23T16:29:02.532Z,8.23
2018-05-23T16:31:30.724Z,6.33
2018-05-23T16:33:58.961Z,4.13
2018-05-23T16:36:27.979Z,6.30
2018-05-23T16:38:56.347Z,5.57
2018-05-23T16:41:24.562Z,3.90
2018-05-23T16:43:52.957Z,5.87
2018-05-23T16:46:21.389Z,4.50
2018-05-23T16:48:49.608Z,5.73
2018-05-23T16:51:17.835Z,5.97
2018-05-23T16:53:46.752Z,4.70
2018-05-23T16:56:15.004Z,5.30
2018-05-23T16:58:43.273Z,38.27
2018-05-23T17:01:11.504Z,15.33
2018-05-23T17:03:39.752Z,16.10
2018-05-23T17:06:07.978Z,43.67
2018-05-23T17:08:37.005Z,14.10
2018-05-23T17:11:05.220Z,5.10
2018-05-23T17:13:34.622Z,5.37
2018-05-23T17:16:02.810Z,5.80
2018-05-23T17:18:31.065Z,5.73
2018-05-23T17:20:59.283Z,5.80
2018-05-23T17:23:28.289Z,5.03
2018-05-23T17:25:56.506Z,5.53
2018-05-23T17:28:24.738Z,4.33
2018-05-23T17:30:52.952Z,4.87
2018-05-23T17:33:21.192Z,4.60
2018-05-23T17:35:50.160Z,4.30
2018-05-23T17:38:19.137Z,4.73
2018-05-23T17:40:47.353Z,4.53
2018-05-23T17:43:15.560Z,3.87
2018-05-23T17:45:43.829Z,3.77
2018-05-23T17:48:11.995Z,4.20
2018-05-23T17:50:40.220Z,4.47
2018-05-23T17:53:09.197Z,4.00
2018-05-23T17:55:37.429Z,4.00
2018-05-23T17:58:05.642Z,4.20
2018-05-23T18:00:33.860Z,4.17
2018-05-23T18:03:02.140Z,4.17
2018-05-23T18:05:30.414Z,3.93
2018-05-23T18:07:58.649Z,4.40
2018-05-23T18:10:27.042Z,4.30
2018-05-23T18:12:55.240Z,4.30
2018-05-23T18:15:23.515Z,4.77
2018-05-23T18:17:51.795Z,4.37
2018-05-23T18:20:19.991Z,4.40
2018-05-23T18:22:48.228Z,4.47
2018-05-23T18:25:16.638Z,4.20
2018-05-23T18:27:44.903Z,4.43
2018-05-23T18:30:13.385Z,5.83
2018-05-23T18:32:41.649Z,9.97
2018-05-23T18:35:09.882Z,24.30
2018-05-23T18:37:38.185Z,16.70
2018-05-23T18:40:06.675Z,10.23
2018-05-23T18:42:35.666Z,10.10
2018-05-23T18:45:04.664Z,7.93
2018-05-23T18:47:33.046Z,8.33
2018-05-23T18:50:01.345Z,5.97
2018-05-23T18:52:30.416Z,6.23
2018-05-23T18:54:58.649Z,8.03
2018-05-23T18:57:26.904Z,12.40
2018-05-23T18:59:55.115Z,13.70
2018-05-23T19:02:24.150Z,13.33
2018-05-23T19:04:52.387Z,8.40
2018-05-23T19:07:20.617Z,9.03
2018-05-23T19:09:48.835Z,8.83
2018-05-23T19:12:17.856Z,7.10
2018-05-23T19:14:46.069Z,7.03
2018-05-23T19:17:14.292Z,8.53
2018-05-23T19:19:42.675Z,7.33
2018-05-23T19:22:10.865Z,8.07
2018-05-23T19:24:39.058Z,5.57
2018-05-23T19:27:07.285Z,5.40
2018-05-23T19:29:36.604Z,6.20
2018-05-23T19:32:04.865Z,7.87
2018-05-23T19:34:33.138Z,5.40
2018-05-23T19:37:02.125Z,5.47
2018-05-23T19:39:31.112Z,5.37
2018-05-23T19:42:00.107Z,7.00
2018-05-23T19:44:29.980Z,6.57
2018-05-23T19:46:58.207Z,6.87
2018-05-23T19:49:26.424Z,7.30
2018-05-23T19:51:54.666Z,7.23
2018-05-23T19:54:22.965Z,7.10
2018-05-23T19:56:51.213Z,8.07
2018-05-23T19:59:19.501Z,5.97
2018-05-23T20:01:47.733Z,5.40
2018-05-23T20:04:15.978Z,5.90
2018-05-23T20:06:44.197Z,6.30
2018-05-23T20:09:13.176Z,5.90
2018-05-23T20:11:41.402Z,6.07
2018-05-23T20:14:09.659Z,5.30
2018-05-23T20:16:37.852Z,6.00
2018-05-23T20:19:06.063Z,5.57
2018-05-23T20:21:34.295Z,6.60
2018-05-23T20:24:02.509Z,5.97
2018-05-23T20:26:30.741Z,6.27
2018-05-23T20:28:58.945Z,6.27
2018-05-23T20:31:27.193Z,6.20
2018-05-23T20:33:55.419Z,6.80
2018-05-23T20:36:23.684Z,6.63
2018-05-23T20:38:52.066Z,6.47
2018-05-23T20:41:20.273Z,6.70
2018-05-23T20:43:48.521Z,8.10
2018-05-23T20:46:16.749Z,6.77
2018-05-23T20:48:44.991Z,6.43
2018-05-23T20:51:13.954Z,8.97
2018-05-23T20:53:42.197Z,8.13
2018-05-23T20:56:10.416Z,7.77
2018-05-23T20:58:38.686Z,11.53
2018-05-23T21:01:06.921Z,11.40
2018-05-23T21:03:35.428Z,11.47
2018-05-23T21:06:03.667Z,9.57
2018-05-23T21:08:31.931Z,14.50
2018-05-23T21:11:00.310Z,16.77
2018-05-23T21:13:28.540Z,11.30
2018-05-23T21:15:56.803Z,9.67
2018-05-23T21:18:25.023Z,11.13
2018-05-23T21:20:53.250Z,17.03
2018-05-23T21:23:21.636Z,11.23
2018-05-23T21:25:49.915Z,12.33
2018-05-23T21:28:18.156Z,11.23
2018-05-23T21:30:46.377Z,12.87
2018-05-23T21:33:15.381Z,11.37
2018-05-23T21:35:44.404Z,17.90
2018-05-23T21:38:12.636Z,12.57
2018-05-23T21:40:41.616Z,12.63
2018-05-23T21:43:10.241Z,12.10
2018-05-23T21:45:38.464Z,13.57
2018-05-23T21:48:06.705Z,10.73
2018-05-23T21:50:36.105Z,14.50
2018-05-23T21:53:04.710Z,10.63
2018-05-23T21:55:32.925Z,10.93
2018-05-23T21:58:01.935Z,13.27
2018-05-23T22:00:30.934Z,11.80
2018-05-23T22:02:59.213Z,12.63
2018-05-23T22:05:27.435Z,11.13
2018-05-23T22:07:55.692Z,10.50
2018-05-23T22:10:23.900Z,11.13
2018-05-23T22:12:52.214Z,9.77
2018-05-23T22:15:20.356Z,9.93
2018-05-23T22:17:49.377Z,11.77
2018-05-23T22:20:17.613Z,15.90
2018-05-23T22:22:45.871Z,12.53
2018-05-23T22:25:14.162Z,14.13
2018-05-23T22:27:42.393Z,14.17
2018-05-23T22:30:11.021Z,13.37
2018-05-23T22:32:39.333Z,13.10
2018-05-23T22:35:07.548Z,13.60
2018-05-23T22:37:35.763Z,11.43
2018-05-23T22:40:05.294Z,13.43
2018-05-23T22:42:33.517Z,12.37
2018-05-23T22:45:01.759Z,13.03
2018-05-23T22:47:30.033Z,12.53
2018-05-23T22:49:58.297Z,13.97
2018-05-23T22:52:26.509Z,15.50
2018-05-23T22:54:54.749Z,19.37
2018-05-23T22:57:22.976Z,24.13
2018-05-23T22:59:51.210Z,22.53
2018-05-23T23:02:19.443Z,18.70
2018-05-23T23:04:48.445Z,13.03
2018-05-23T23:07:16.704Z,13.83
2018-05-23T23:09:45.706Z,12.07
2018-05-23T23:12:14.701Z,10.87
2018-05-23T23:14:43.697Z,11.70
2018-05-23T23:17:12.780Z,10.20
2018-05-23T23:19:41.804Z,10.43
2018-05-23T23:25:06.532Z,10.57
2018-05-23T23:27:34.781Z,10.00
2018-05-23T23:30:03.423Z,9.33
2018-05-23T23:32:31.657Z,9.13
2018-05-23T23:34:59.903Z,10.33
2018-05-23T23:37:28.909Z,15.97
2018-05-23T23:39:57.926Z,14.60
2018-05-23T23:42:26.276Z,24.67
2018-05-23T23:44:54.475Z,17.43
2018-05-23T23:47:22.701Z,13.30
2018-05-23T23:49:50.938Z,13.27
2018-05-23T23:52:19.175Z,11.70
2018-05-23T23:54:48.310Z,12.00
2018-05-23T23:57:16.537Z,12.60
2018-05-23T23:59:45.549Z,13.53
